Time;durP1;ratioP1;P1;durP2;ratioP2;P2;SDS_P1;SDS_P2;PMS_P1;PMS_P2;Temp;Humidity;BMP_temperature;BMP_pressure;BME280_temperature;BME280_humidity;BME280_pressure;Samples;Min_cycle;Max_cycle;Signal;HPM_P1;HPM_P2
2022/07/12 00:01:28;;;;;;;1.83;1.67;;;;;;;15.13;94.18;99335.81;4136472;28;20054;-72
2022/07/12 00:03:28;;;;;;;2.28;1.85;;;;;;;15.07;94.61;99334.59;4138390;28;20080;-72
2022/07/12 00:05:29;;;;;;;2.15;1.55;;;;;;;15.07;94.26;99334.59;4137814;28;20092;-72
2022/07/12 00:07:29;;;;;;;2.60;1.80;;;;;;;15.03;94.55;99340.13;4136363;28;20137;-72
2022/07/12 00:09:29;;;;;;;2.75;1.80;;;;;;;14.99;94.50;99341.31;4136797;28;20504;-72
2022/07/12 00:11:30;;;;;;;1.67;1.58;;;;;;;14.95;94.47;99338.47;4136408;28;20500;-72
2022/07/12 00:13:31;;;;;;;2.40;1.70;;;;;;;14.93;94.85;99349.22;4137401;28;20489;-72
2022/07/12 00:15:31;;;;;;;1.70;1.40;;;;;;;14.89;94.89;99337.22;4137382;28;20216;-72
2022/07/12 00:17:32;;;;;;;1.90;1.50;;;;;;;14.86;94.32;99338.00;4136605;28;20104;-72
2022/07/12 00:19:32;;;;;;;2.30;1.40;;;;;;;14.81;94.83;99335.56;4134014;28;20138;-72
2022/07/12 00:21:33;;;;;;;2.88;1.40;;;;;;;14.78;95.05;99342.72;4135419;28;20593;-72
2022/07/12 00:23:34;;;;;;;1.63;1.50;;;;;;;14.78;95.27;99350.28;4137218;28;20078;-72
2022/07/12 00:25:34;;;;;;;2.70;1.65;;;;;;;14.77;95.38;99345.91;4135832;28;20372;-72
2022/07/12 00:27:34;;;;;;;2.05;1.52;;;;;;;14.73;95.85;99345.03;4137947;28;20049;-72
2022/07/12 00:29:35;;;;;;;3.15;1.85;;;;;;;14.72;95.29;99343.44;4136320;28;20064;-72
2022/07/12 00:31:36;;;;;;;1.52;1.33;;;;;;;14.72;95.30;99346.22;4135937;28;20495;-72
2022/07/12 00:33:36;;;;;;;2.65;1.38;;;;;;;14.70;94.68;99340.25;4136322;28;20088;-72
2022/07/12 00:35:37;;;;;;;1.50;1.40;;;;;;;14.66;94.96;99343.03;4137207;28;20744;-72
2022/07/12 00:37:37;;;;;;;2.67;1.60;;;;;;;14.65;93.74;99349.78;4136089;28;20049;-72
2022/07/12 00:39:38;;;;;;;3.67;1.40;;;;;;;14.64;93.92;99348.16;4135345;28;20356;-72
2022/07/12 00:41:38;;;;;;;3.05;1.50;;;;;;;14.58;95.29;99335.78;4135610;28;20053;-72
2022/07/12 00:43:38;;;;;;;1.42;1.33;;;;;;;14.55;95.44;99340.13;4136674;28;20073;-72
2022/07/12 00:45:39;;;;;;;2.20;1.60;;;;;;;14.49;95.66;99338.88;4136557;28;20470;-72
2022/07/12 00:47:46;;;;;;;2.50;1.60;;;;;;;14.47;96.52;99344.03;4136596;28;20052;-72
2022/07/12 00:49:47;;;;;;;2.08;1.75;;;;;;;14.46;97.77;99345.22;4136798;28;20046;-72
2022/07/12 00:51:47;;;;;;;1.65;1.50;;;;;;;14.37;99.48;99341.09;4135321;28;20318;-72
2022/07/12 00:53:51;;;;;;;1.83;1.52;;;;;;;14.30;100.00;99336.25;4137136;28;20050;-72
2022/07/12 00:55:56;;;;;;;2.17;1.95;;;;;;;14.25;99.42;99336.63;4136825;28;20184;-72
2022/07/12 00:57:56;;;;;;;3.45;1.80;;;;;;;14.23;98.40;99331.44;4135978;28;20053;-72
2022/07/12 00:59:56;;;;;;;2.08;1.55;;;;;;;14.20;98.46;99342.53;4134858;28;20042;-72
2022/07/12 01:01:57;;;;;;;1.70;1.45;;;;;;;14.22;96.87;99343.75;4135771;28;20127;-72
2022/07/12 01:03:57;;;;;;;2.88;2.00;;;;;;;14.19;97.19;99338.16;4136275;28;20129;-72
2022/07/12 01:05:58;;;;;;;2.50;1.50;;;;;;;14.17;96.70;99338.53;4135355;28;20041;-72
2022/07/12 01:07:59;;;;;;;1.90;1.45;;;;;;;14.17;96.19;99334.94;4136430;28;20304;-72
2022/07/12 01:10:00;;;;;;;2.25;1.60;;;;;;;14.16;95.92;99334.16;4135026;28;20111;-72
2022/07/12 01:12:01;;;;;;;2.00;1.83;;;;;;;14.09;96.83;99328.50;4135128;28;20550;-72
2022/07/12 01:14:02;;;;;;;3.35;1.77;;;;;;;14.04;97.24;99334.41;4135915;28;20061;-72
2022/07/12 01:16:04;;;;;;;2.22;1.80;;;;;;;13.99;97.00;99335.56;4135060;28;20244;-71
2022/07/12 01:18:04;;;;;;;2.88;1.73;;;;;;;13.93;98.06;99334.28;4135987;28;20417;-72
2022/07/12 01:20:06;;;;;;;2.33;2.13;;;;;;;13.88;99.72;99340.19;4132051;28;20027;-72
2022/07/12 01:22:10;;;;;;;2.40;2.10;;;;;;;13.84;99.31;99336.56;4135939;28;20370;-72
2022/07/12 01:24:11;;;;;;;2.60;2.00;;;;;;;13.82;100.00;99338.94;4135792;28;20029;-72
2022/07/12 01:26:11;;;;;;;2.20;2.00;;;;;;;13.72;100.00;99334.00;4136809;28;20513;-72
2022/07/12 01:28:12;;;;;;;2.90;2.60;;;;;;;13.69;100.00;99335.59;4134608;28;20038;-72
2022/07/12 01:30:12;;;;;;;2.72;2.33;;;;;;;13.67;100.00;99332.38;4135532;28;20557;-72
2022/07/12 01:32:25;;;;;;;3.65;2.20;;;;;;;13.63;100.00;99333.50;4135387;28;20092;-72
2022/07/12 01:34:25;;;;;;;3.47;2.67;;;;;;;13.59;100.00;99332.69;4136126;28;20504;-72
2022/07/12 01:36:25;;;;;;;2.95;2.67;;;;;;;13.54;100.00;99325.44;4136085;28;20046;-72
2022/07/12 01:38:26;;;;;;;3.38;2.42;;;;;;;13.58;100.00;99325.53;4134881;28;20502;-71
2022/07/12 01:40:27;;;;;;;3.35;2.10;;;;;;;13.54;100.00;99325.44;4135421;28;20073;-72
2022/07/12 01:42:28;;;;;;;2.65;2.05;;;;;;;13.53;100.00;99332.19;4135391;28;20506;-71
2022/07/12 01:44:29;;;;;;;3.38;2.67;;;;;;;13.55;100.00;99337.38;4136183;28;20046;-72
2022/07/12 01:46:29;;;;;;;3.22;2.42;;;;;;;13.49;100.00;99326.59;4135939;28;20041;-71
2022/07/12 01:48:29;;;;;;;2.70;2.45;;;;;;;13.45;100.00;99322.97;4135137;28;20050;-72
2022/07/12 01:50:30;;;;;;;2.58;2.38;;;;;;;13.36;100.00;99328.00;4135752;28;20092;-72
2022/07/12 01:52:31;;;;;;;4.03;2.67;;;;;;;13.31;100.00;99327.50;4135496;28;20037;-71
2022/07/12 01:54:32;;;;;;;5.65;2.90;;;;;;;13.25;100.00;99334.59;4136499;28;20096;-72
2022/07/12 01:56:34;;;;;;;3.10;2.80;;;;;;;13.11;100.00;99330.38;4136204;28;20092;-71
2022/07/12 01:58:35;;;;;;;3.83;3.10;;;;;;;13.08;100.00;99333.13;4134395;28;20463;-71
2022/07/12 02:00:35;;;;;;;3.80;3.05;;;;;;;13.08;100.00;99333.94;4134794;28;20355;-71
2022/07/12 02:02:37;;;;;;;3.72;3.40;;;;;;;13.05;100.00;99336.63;4135807;28;20088;-72
2022/07/12 02:04:38;;;;;;;3.70;2.85;;;;;;;13.05;100.00;99339.41;4136244;28;20045;-71
2022/07/12 02:06:39;;;;;;;3.75;3.22;;;;;;;13.02;100.00;99342.94;4135930;28;20058;-71
2022/07/12 02:08:42;;;;;;;3.22;2.72;;;;;;;12.97;100.00;99344.06;4133243;28;20056;-71
2022/07/12 02:10:43;;;;;;;3.20;2.90;;;;;;;13.00;100.00;99339.75;4135321;28;20042;-71
2022/07/12 02:12:43;;;;;;;3.83;3.10;;;;;;;13.00;100.00;99339.75;4134805;28;20148;-71
2022/07/12 02:14:44;;;;;;;3.83;2.58;;;;;;;12.98;100.00;99336.53;4135892;28;20049;-71
2022/07/12 02:16:44;;;;;;;4.15;2.97;;;;;;;13.06;100.00;99329.91;4136122;28;20500;-72
2022/07/12 02:18:44;;;;;;;3.10;2.78;;;;;;;13.00;100.00;99335.00;4133983;28;20511;-71
2022/07/12 02:20:45;;;;;;;4.10;3.53;;;;;;;13.00;100.00;99336.97;4135269;28;20502;-71
2022/07/12 02:22:45;;;;;;;6.40;4.22;;;;;;;12.88;100.00;99327.66;4135440;28;20502;-71
2022/07/12 02:24:46;;;;;;;3.92;3.53;;;;;;;12.84;100.00;99337.91;4136218;28;20377;-72
2022/07/12 02:26:46;;;;;;;3.50;3.20;;;;;;;12.74;100.00;99337.72;4135298;28;20042;-71
2022/07/12 02:28:46;;;;;;;4.82;3.67;;;;;;;12.71;100.00;99330.94;4133812;28;20078;-71
2022/07/12 02:30:47;;;;;;;4.75;3.85;;;;;;;12.71;100.00;99336.50;4135560;28;20100;-71
2022/07/12 02:32:47;;;;;;;4.43;3.38;;;;;;;12.67;100.00;99335.66;4137304;28;20052;-71
2022/07/12 02:34:47;;;;;;;4.78;3.97;;;;;;;12.60;100.00;99335.53;4137975;28;20040;-71
2022/07/12 02:36:48;;;;;;;5.40;4.10;;;;;;;12.55;100.00;99333.06;4139882;28;20194;-71
2022/07/12 02:38:48;;;;;;;5.22;3.97;;;;;;;12.52;100.00;99339.34;4137970;28;20038;-71
2022/07/12 02:40:54;;;;;;;5.55;4.32;;;;;;;12.51;100.00;99340.53;4138041;28;20065;-71
2022/07/12 02:42:55;;;;;;;5.13;4.30;;;;;;;12.45;100.00;99336.44;4138651;28;20049;-71
2022/07/12 02:44:55;;;;;;;5.07;4.45;;;;;;;12.40;100.00;99334.78;4138550;28;20046;-71
2022/07/12 02:46:55;;;;;;;4.68;3.97;;;;;;;12.45;100.00;99334.47;4139301;28;20057;-72
2022/07/12 02:48:56;;;;;;;5.00;4.13;;;;;;;12.41;100.00;99336.38;4137103;28;20473;-71
2022/07/12 02:50:56;;;;;;;5.00;4.47;;;;;;;12.42;100.00;99332.44;4136725;28;20040;-71
2022/07/12 02:52:57;;;;;;;5.47;4.57;;;;;;;12.38;100.00;99328.78;4136576;28;20121;-71
2022/07/12 02:54:57;;;;;;;6.72;5.15;;;;;;;12.37;100.00;99335.53;4137378;28;20141;-71
2022/07/12 02:56:57;;;;;;;6.00;4.97;;;;;;;12.38;100.00;99337.13;4138953;28;20383;-71
2022/07/12 02:58:58;;;;;;;7.65;5.43;;;;;;;12.37;100.00;99341.88;4137000;28;20525;-71
2022/07/12 03:00:58;;;;;;;5.95;4.90;;;;;;;12.35;100.00;99335.09;4135962;28;20081;-71
2022/07/12 03:02:59;;;;;;;6.10;4.72;;;;;;;12.36;100.00;99337.50;4135677;28;20050;-71
2022/07/12 03:04:59;;;;;;;6.10;4.68;;;;;;;12.35;100.00;99338.66;4136384;28;20038;-71
2022/07/12 03:06:59;;;;;;;7.88;5.32;;;;;;;12.35;100.00;99335.09;4137736;28;20454;-72
2022/07/12 03:09:00;;;;;;;8.80;4.50;;;;;;;12.34;100.00;99341.81;4136016;28;20073;-71
2022/07/12 03:11:00;;;;;;;8.70;4.68;;;;;;;12.32;100.00;99344.13;4136193;28;20100;-72
2022/07/12 03:13:01;;;;;;;6.47;5.40;;;;;;;12.28;100.00;99343.28;4135553;28;20065;-71
2022/07/12 03:15:02;;;;;;;7.03;4.80;;;;;;;12.31;100.00;99348.09;4136083;28;20100;-71
2022/07/12 03:17:03;;;;;;;5.65;4.78;;;;;;;12.36;100.00;99345.81;4136746;28;20073;-71
2022/07/12 03:19:04;;;;;;;5.35;4.80;;;;;;;12.33;100.00;99352.13;4135564;28;20048;-72
2022/07/12 03:21:04;;;;;;;6.22;4.75;;;;;;;12.33;100.00;99354.91;4136704;28;20046;-71
2022/07/12 03:23:04;;;;;;;6.93;5.30;;;;;;;12.29;100.00;99355.97;4136042;28;20129;-71
2022/07/12 03:25:06;;;;;;;6.85;4.43;;;;;;;12.28;100.00;99359.94;4136140;28;20471;-71
2022/07/12 03:27:06;;;;;;;5.82;5.07;;;;;;;12.25;100.00;99361.47;4135725;28;20042;-71
2022/07/12 03:29:07;;;;;;;6.47;4.93;;;;;;;12.31;100.00;99371.09;4135631;28;20046;-71
2022/07/12 03:31:08;;;;;;;6.38;5.00;;;;;;;12.31;100.00;99362.75;4136881;28;20046;-71
2022/07/12 03:33:08;;;;;;;5.47;4.70;;;;;;;12.33;100.00;99368.75;4136206;28;20096;-71
2022/07/12 03:35:09;;;;;;;6.15;4.63;;;;;;;12.36;100.00;99370.00;4136069;28;20109;-71
2022/07/12 03:37:09;;;;;;;5.55;4.47;;;;;;;12.38;100.00;99370.41;4135267;28;20038;-71
2022/07/12 03:39:09;;;;;;;6.03;5.13;;;;;;;12.45;100.00;99365.00;4133270;28;20360;-71
2022/07/12 03:41:10;;;;;;;5.65;4.57;;;;;;;12.47;100.00;99370.97;4136108;28;20060;-71
2022/07/12 03:43:10;;;;;;;5.00;4.50;;;;;;;12.50;100.00;99372.25;4135927;28;20046;-71
2022/07/12 03:45:11;;;;;;;5.78;5.10;;;;;;;12.55;100.00;99374.69;4135829;28;20044;-71
2022/07/12 03:47:11;;;;;;;6.53;5.63;;;;;;;12.54;100.00;99373.09;4134886;28;20046;-71
2022/07/12 03:49:12;;;;;;;6.22;5.15;;;;;;;12.53;100.00;99377.84;4133779;28;20044;-71
2022/07/12 03:51:12;;;;;;;7.90;4.88;;;;;;;12.57;100.00;99394.53;4136561;28;20564;-71
2022/07/12 03:53:12;;;;;;;7.28;5.45;;;;;;;12.58;100.00;99390.63;4137716;28;20061;-71
2022/07/12 03:55:13;;;;;;;6.03;5.18;;;;;;;12.59;100.00;99395.81;4135646;28;20413;-71
2022/07/12 03:57:14;;;;;;;6.65;5.95;;;;;;;12.62;100.00;99408.13;4136055;28;20050;-71
2022/07/12 03:59:15;;;;;;;7.47;5.82;;;;;;;12.64;100.00;99406.59;4131785;28;20661;-71
2022/07/12 04:01:15;;;;;;;6.60;5.38;;;;;;;12.67;100.00;99404.25;4130305;28;20058;-71
2022/07/12 04:03:15;;;;;;;6.55;5.30;;;;;;;12.70;100.00;99400.72;4133767;28;20182;-71
2022/07/12 04:05:16;;;;;;;7.70;5.10;;;;;;;12.75;100.00;99411.53;4135966;28;20049;-71
2022/07/12 04:07:16;;;;;;;4.97;4.45;;;;;;;12.74;100.00;99404.34;4138281;28;20045;-71
2022/07/12 04:09:16;;;;;;;5.10;4.13;;;;;;;12.75;100.00;99408.78;4137187;28;20050;-71
2022/07/12 04:11:17;;;;;;;4.97;4.20;;;;;;;12.70;100.00;99409.88;4135761;28;20050;-71
2022/07/12 04:13:17;;;;;;;4.55;4.07;;;;;;;12.71;100.00;99403.13;4139097;28;20157;-71
2022/07/12 04:15:17;;;;;;;4.63;4.03;;;;;;;12.75;100.00;99406.00;4137761;28;20349;-71
2022/07/12 04:17:19;;;;;;;5.22;4.40;;;;;;;12.75;100.00;99412.34;4137805;28;20050;-72
2022/07/12 04:19:19;;;;;;;5.00;4.40;;;;;;;12.79;100.00;99406.84;4136460;28;20482;-71
2022/07/12 04:21:20;;;;;;;6.72;4.82;;;;;;;12.87;100.00;99405.78;4135612;28;20053;-71
2022/07/12 04:23:20;;;;;;;5.97;5.00;;;;;;;12.92;100.00;99399.94;4137142;28;20405;-71
2022/07/12 04:25:20;;;;;;;6.30;4.80;;;;;;;12.96;100.00;99405.53;4136123;28;20069;-71
2022/07/12 04:27:21;;;;;;;6.28;4.88;;;;;;;12.99;100.00;99404.78;4136629;28;20046;-71
2022/07/12 04:29:22;;;;;;;7.22;5.85;;;;;;;12.99;100.00;99422.28;4135880;28;20120;-71
2022/07/12 04:31:22;;;;;;;7.07;4.70;;;;;;;13.00;100.00;99411.97;4136657;28;20129;-71
2022/07/12 04:33:23;;;;;;;6.35;5.10;;;;;;;13.09;100.00;99409.75;4138164;28;20161;-71
2022/07/12 04:35:23;;;;;;;8.52;5.45;;;;;;;13.11;100.00;99407.38;4137144;28;20052;-71
2022/07/12 04:37:24;;;;;;;7.60;6.03;;;;;;;13.17;100.00;99409.47;4137494;28;20206;-71
2022/07/12 04:39:24;;;;;;;7.18;5.53;;;;;;;13.21;100.00;99413.13;4135784;28;20470;-72
2022/07/12 04:41:25;;;;;;;6.80;5.80;;;;;;;13.30;100.00;99418.44;4136558;28;20285;-71
2022/07/12 04:43:25;;;;;;;7.55;5.78;;;;;;;13.39;100.00;99416.19;4137234;28;20316;-71
2022/07/12 04:45:25;;;;;;;7.78;5.40;;;;;;;13.50;100.00;99419.16;4135029;28;20124;-71
2022/07/12 04:47:26;;;;;;;7.70;5.75;;;;;;;13.59;100.00;99422.44;4136239;28;20049;-71
2022/07/12 04:49:26;;;;;;;7.47;5.93;;;;;;;13.68;100.00;99417.41;4136000;28;20073;-71
2022/07/12 04:51:27;;;;;;;9.27;6.22;;;;;;;13.74;100.00;99418.69;4137274;28;20042;-71
2022/07/12 04:53:28;;;;;;;6.03;5.22;;;;;;;13.82;100.00;99411.25;4136479;28;20712;-71
2022/07/12 04:55:28;;;;;;;6.93;5.72;;;;;;;13.91;100.00;99411.75;4136063;28;20064;-71
2022/07/12 04:57:29;;;;;;;8.40;5.38;;;;;;;14.03;100.00;99413.50;4136918;28;20125;-71
2022/07/12 04:59:29;;;;;;;7.82;5.68;;;;;;;14.14;100.00;99410.84;4135955;28;20034;-71
2022/07/12 05:01:29;;;;;;;6.38;5.60;;;;;;;14.21;100.00;99419.28;4135490;28;20034;-71
2022/07/12 05:03:30;;;;;;;6.75;5.65;;;;;;;14.29;100.00;99407.03;4134875;28;20050;-71
2022/07/12 05:05:30;;;;;;;6.80;5.70;;;;;;;14.37;100.00;99408.72;4134576;28;20406;-71
2022/07/12 05:07:31;;;;;;;5.82;5.22;;;;;;;14.45;100.00;99409.59;4057108;28;20051;-71
2022/07/12 05:09:31;;;;;;;6.43;5.70;;;;;;;14.51;100.00;99414.47;4141832;28;20060;-71
2022/07/12 05:11:33;;;;;;;5.35;4.82;;;;;;;14.59;100.00;99415.38;4134921;28;20080;-71
2022/07/12 05:13:33;;;;;;;6.25;5.22;;;;;;;14.60;100.00;99409.41;4136159;28;20057;-72
2022/07/12 05:15:33;;;;;;;5.88;5.28;;;;;;;14.67;100.00;99421.81;4135242;28;20066;-71
2022/07/12 05:17:34;;;;;;;6.53;5.28;;;;;;;14.76;100.00;99417.53;4134945;28;20052;-72
2022/07/12 05:19:34;;;;;;;7.90;5.40;;;;;;;14.87;100.00;99420.41;4135439;28;20041;-71
2022/07/12 05:21:35;;;;;;;5.80;4.82;;;;;;;14.97;100.00;99425.25;4137038;28;20414;-71
2022/07/12 05:23:35;;;;;;;7.15;6.10;;;;;;;15.06;100.00;99427.72;4135780;28;20096;-72
2022/07/12 05:25:36;;;;;;;7.40;6.63;;;;;;;15.00;100.00;99429.28;4135759;28;20061;-71
2022/07/12 05:27:37;;;;;;;7.90;6.53;;;;;;;15.02;100.00;99435.25;4136820;28;20077;-72
2022/07/12 05:29:37;;;;;;;7.50;6.65;;;;;;;14.98;100.00;99426.88;4134858;28;20550;-72
2022/07/12 05:31:38;;;;;;;7.15;6.45;;;;;;;14.93;99.12;99432.81;4134586;28;20347;-72
2022/07/12 05:33:38;;;;;;;12.85;7.70;;;;;;;14.84;98.58;99429.53;4136660;28;20049;-71
2022/07/12 05:35:39;;;;;;;9.50;7.75;;;;;;;14.81;98.98;99431.13;4135603;28;20555;-72
2022/07/12 05:37:39;;;;;;;8.85;7.93;;;;;;;14.90;97.29;99441.94;4135888;28;20050;-72
2022/07/12 05:39:39;;;;;;;9.00;7.45;;;;;;;14.77;98.21;99440.59;4136438;28;20386;-71
2022/07/12 05:41:39;;;;;;;7.60;6.55;;;;;;;14.69;98.90;99442.50;4136719;28;20102;-71
2022/07/12 05:43:40;;;;;;;8.88;6.00;;;;;;;14.65;99.85;99447.25;4136401;28;20048;-71
2022/07/12 05:45:42;;;;;;;7.72;6.20;;;;;;;14.56;100.00;99444.78;4136146;28;20108;-71
2022/07/12 05:47:42;;;;;;;8.98;6.03;;;;;;;14.57;100.00;99451.16;4137383;28;20084;-71
2022/07/12 05:49:42;;;;;;;6.03;5.25;;;;;;;14.52;100.00;99449.50;4135648;28;20528;-71
2022/07/12 05:54:02;;;;;;;7.82;6.20;;;;;;;14.63;100.00;99454.38;4136021;28;20379;-71
2022/07/12 05:56:02;;;;;;;8.02;6.63;;;;;;;14.78;100.00;99456.13;4136758;28;20034;-71
2022/07/12 05:58:03;;;;;;;7.90;6.72;;;;;;;14.92;100.00;99456.28;4136181;28;20402;-71
2022/07/12 06:00:04;;;;;;;8.95;6.15;;;;;;;15.09;98.66;99457.63;4135953;28;20030;-71
2022/07/12 06:02:05;;;;;;;6.55;5.68;;;;;;;15.16;96.85;99457.69;4135678;28;20466;-71
2022/07/12 06:04:05;;;;;;;6.25;5.65;;;;;;;15.28;95.05;99467.75;4135513;28;20216;-71
2022/07/12 06:06:06;;;;;;;6.78;5.40;;;;;;;15.39;95.45;99471.41;4136094;28;20056;-72
2022/07/12 06:08:06;;;;;;;8.75;5.72;;;;;;;15.41;93.75;99474.63;4135657;28;20030;-71
2022/07/12 06:10:07;;;;;;;6.43;5.40;;;;;;;15.51;93.87;99473.91;4135371;28;20052;-71
2022/07/12 06:12:07;;;;;;;6.07;5.43;;;;;;;15.58;93.01;99473.97;4135597;28;20037;-72
2022/07/12 06:14:08;;;;;;;6.78;6.07;;;;;;;15.61;92.69;99475.19;4136071;28;20518;-71
2022/07/12 06:16:10;;;;;;;7.25;6.40;;;;;;;15.72;93.46;99462.94;4136027;28;20477;-72
2022/07/12 06:18:10;;;;;;;7.28;6.57;;;;;;;15.83;92.33;99465.78;4136600;28;20030;-72
2022/07/12 06:20:11;;;;;;;8.60;6.40;;;;;;;15.87;91.46;99461.00;4136032;28;20061;-71
2022/07/12 06:22:11;;;;;;;8.00;5.88;;;;;;;15.93;90.89;99464.25;4135453;28;20030;-72
2022/07/12 06:24:12;;;;;;;6.07;5.47;;;;;;;15.93;89.80;99464.25;4135997;28;20030;-72
2022/07/12 06:26:12;;;;;;;6.78;4.80;;;;;;;16.03;88.27;99471.88;4136490;28;20077;-71
2022/07/12 06:28:12;;;;;;;5.32;4.70;;;;;;;16.05;88.79;99469.47;4136560;28;20176;-72
2022/07/12 06:30:15;;;;;;;5.32;4.75;;;;;;;16.04;88.45;99467.88;4136364;28;20378;-71
2022/07/12 06:32:16;;;;;;;5.10;4.60;;;;;;;15.98;88.27;99461.09;4135129;28;20034;-71
2022/07/12 06:34:16;;;;;;;5.15;4.40;;;;;;;16.09;88.73;99475.91;4135444;28;20107;-72
2022/07/12 06:36:17;;;;;;;5.60;4.43;;;;;;;16.20;88.00;99471.16;4135875;28;20025;-72
2022/07/12 06:38:17;;;;;;;6.20;4.70;;;;;;;16.31;87.77;99473.22;4135764;28;20054;-71
2022/07/12 06:40:18;;;;;;;5.00;4.50;;;;;;;16.34;87.34;99473.22;4136234;28;20072;-72
2022/07/12 06:42:18;;;;;;;7.18;3.80;;;;;;;16.46;85.03;99472.06;4135596;28;20038;-71
2022/07/12 06:44:18;;;;;;;3.90;3.45;;;;;;;16.48;84.73;99469.69;4135988;28;20378;-72
2022/07/12 06:46:19;;;;;;;3.70;2.97;;;;;;;16.50;83.99;99462.50;4134548;28;20446;-72
2022/07/12 06:48:19;;;;;;;3.20;2.90;;;;;;;16.48;82.65;99467.69;4128244;28;20812;-72
2022/07/12 06:50:20;;;;;;;3.78;2.70;;;;;;;16.40;81.08;99468.88;4134819;28;20026;-71
2022/07/12 06:52:20;;;;;;;3.80;3.00;;;;;;;16.56;81.29;99477.69;4135535;28;20034;-72
2022/07/12 06:54:21;;;;;;;2.35;2.13;;;;;;;16.50;79.07;99479.28;4136767;28;20061;-72
2022/07/12 06:56:21;;;;;;;2.33;2.00;;;;;;;16.52;79.16;99474.09;4136397;28;20065;-71
2022/07/12 06:58:21;;;;;;;2.35;2.15;;;;;;;16.47;79.24;99482.88;4135252;28;20087;-72
2022/07/12 07:00:23;;;;;;;2.80;2.33;;;;;;;16.43;80.05;99487.63;4135839;28;20042;-72
2022/07/12 07:02:24;;;;;;;2.70;2.17;;;;;;;16.46;80.07;99489.63;4135674;28;20184;-71
2022/07/12 07:04:24;;;;;;;2.65;2.30;;;;;;;16.53;79.87;99481.25;4135269;28;20137;-72
2022/07/12 07:06:25;;;;;;;2.08;1.95;;;;;;;16.64;79.10;99477.72;4135553;28;20046;-72
2022/07/12 07:08:25;;;;;;;3.05;2.10;;;;;;;16.77;78.30;99473.38;4135771;28;20948;-72
2022/07/12 07:10:25;;;;;;;2.80;2.10;;;;;;;16.97;77.57;99479.44;4135836;28;20380;-72
2022/07/12 07:12:26;;;;;;;2.42;2.05;;;;;;;17.21;77.01;99472.25;4136004;28;20386;-72
2022/07/12 07:14:27;;;;;;;2.53;2.33;;;;;;;17.44;76.62;99485.84;4136219;28;20048;-72
2022/07/12 07:16:27;;;;;;;2.55;2.15;;;;;;;17.61;75.32;99487.84;4135694;28;20113;-72
2022/07/12 07:18:27;;;;;;;3.10;2.50;;;;;;;17.69;74.30;99484.63;4137334;28;20394;-72
2022/07/12 07:20:28;;;;;;;2.70;2.50;;;;;;;17.78;72.52;99491.84;4138259;28;20070;-72
2022/07/12 07:22:28;;;;;;;3.72;2.58;;;;;;;17.80;74.66;99492.25;4138255;28;20088;-72
2022/07/12 07:24:28;;;;;;;4.00;2.15;;;;;;;17.93;73.63;99488.63;4138172;28;20048;-72
2022/07/12 07:26:29;;;;;;;4.57;2.38;;;;;;;18.03;72.40;99481.41;4138208;28;20042;-72
2022/07/12 07:28:29;;;;;;;2.70;2.42;;;;;;;18.08;71.83;99480.19;4137457;28;20132;-72
2022/07/12 07:32:48;;;;;;;6.18;2.38;;;;;;;18.42;70.44;99491.69;4137790;28;20127;-72
2022/07/12 07:34:50;;;;;;;3.05;2.72;;;;;;;18.40;69.78;99486.50;4138596;28;20509;-72
2022/07/12 07:36:51;;;;;;;4.68;2.88;;;;;;;18.45;69.83;99474.03;4138115;28;20386;-72
2022/07/12 07:38:51;;;;;;;2.67;2.45;;;;;;;18.49;71.00;99481.25;4137140;28;20065;-72
2022/07/12 07:40:52;;;;;;;2.90;2.17;;;;;;;18.51;70.55;99464.81;4138723;28;20083;-72
2022/07/12 07:42:52;;;;;;;2.58;2.38;;;;;;;18.66;70.27;99467.59;4138656;28;20038;-72
2022/07/12 07:44:53;;;;;;;4.10;2.35;;;;;;;18.78;69.27;99470.72;4137799;28;20506;-72
2022/07/12 07:46:53;;;;;;;3.05;2.50;;;;;;;18.72;68.68;99463.94;4138433;28;20316;-72
2022/07/12 07:48:53;;;;;;;2.97;2.50;;;;;;;18.85;68.50;99469.06;4137593;28;20054;-72
2022/07/12 07:50:54;;;;;;;2.63;2.38;;;;;;;18.94;67.67;99463.78;4138124;28;20451;-72
2022/07/12 07:52:54;;;;;;;3.97;2.50;;;;;;;18.95;67.78;99460.59;4137399;28;20077;-72
2022/07/12 07:54:54;;;;;;;2.40;2.20;;;;;;;18.89;67.82;99475.47;4137971;28;20312;-72
2022/07/12 07:56:54;;;;;;;2.05;1.90;;;;;;;18.84;68.50;99481.50;4136775;28;20041;-72
2022/07/12 07:58:55;;;;;;;2.40;2.13;;;;;;;18.71;68.32;99467.97;4137747;28;20474;-72
2022/07/12 08:00:55;;;;;;;3.17;2.10;;;;;;;18.56;68.35;99471.22;4138110;28;20042;-72
2022/07/12 08:02:56;;;;;;;2.55;2.10;;;;;;;18.41;68.62;99470.47;4137345;28;20533;-72
2022/07/12 08:04:56;;;;;;;3.28;2.10;;;;;;;18.33;68.20;99469.69;4137717;28;20045;-72
2022/07/12 08:06:58;;;;;;;2.22;1.92;;;;;;;18.21;68.26;99470.97;4137732;28;20397;-72
2022/07/12 08:08:58;;;;;;;2.50;2.30;;;;;;;18.17;67.40;99472.16;4136500;28;20069;-72
2022/07/12 08:10:59;;;;;;;2.33;1.85;;;;;;;18.09;68.70;99473.38;4138411;28;20045;-72
2022/07/12 08:12:59;;;;;;;2.75;1.92;;;;;;;17.95;68.89;99475.00;4138006;28;20034;-72
2022/07/12 08:15:00;;;;;;;2.70;2.08;;;;;;;17.90;69.88;99466.25;4138218;28;20316;-72
2022/07/12 08:17:00;;;;;;;2.20;2.00;;;;;;;17.92;69.05;99459.03;4137023;28;20133;-72
2022/07/12 08:19:01;;;;;;;3.42;2.10;;;;;;;17.86;69.64;99469.03;4137364;28;20046;-72
2022/07/12 08:21:01;;;;;;;2.25;2.05;;;;;;;17.78;71.01;99469.44;4135944;28;20136;-72
2022/07/12 08:23:02;;;;;;;2.65;2.30;;;;;;;17.78;71.23;99475.84;4137352;28;20382;-72
2022/07/12 08:25:03;;;;;;;2.40;2.20;;;;;;;17.77;70.38;99470.66;4137770;28;20094;-72
2022/07/12 08:27:04;;;;;;;2.80;2.13;;;;;;;17.74;69.94;99477.06;4137409;28;20041;-72
2022/07/12 08:29:04;;;;;;;3.20;2.10;;;;;;;17.85;71.90;99475.84;4137136;28;20116;-72
2022/07/12 08:31:05;;;;;;;2.20;2.00;;;;;;;17.91;70.18;99467.84;4137368;28;20561;-72
2022/07/12 08:33:05;;;;;;;2.75;2.00;;;;;;;17.96;70.82;99461.84;4137406;28;20034;-72
2022/07/12 08:35:06;;;;;;;5.07;2.30;;;;;;;18.04;71.28;99463.41;4137866;28;20481;-72
2022/07/12 08:37:06;;;;;;;3.13;1.95;;;;;;;18.12;68.44;99461.38;4137298;28;20417;-72
2022/07/12 08:39:07;;;;;;;2.38;2.08;;;;;;;18.35;68.40;99449.69;4135630;28;20048;-72
2022/07/12 08:41:09;;;;;;;4.10;2.70;;;;;;;18.60;67.63;99449.56;4136717;28;20070;-72
2022/07/12 08:43:09;;;;;;;5.13;2.35;;;;;;;18.71;66.58;99450.34;4137438;28;20049;-72
2022/07/12 08:45:10;;;;;;;2.65;2.40;;;;;;;18.93;65.79;99446.19;4137231;28;20046;-72
2022/07/12 08:47:11;;;;;;;3.20;2.15;;;;;;;19.12;66.90;99449.69;4136875;28;20128;-72
2022/07/12 08:49:11;;;;;;;2.67;2.30;;;;;;;19.41;64.83;99456.63;4136808;28;20343;-72
2022/07/12 08:51:13;;;;;;;2.05;1.85;;;;;;;19.64;62.83;99454.06;4137188;28;20504;-72
2022/07/12 08:53:14;;;;;;;;;;;;;;;19.54;63.10;99446.50;4137832;28;20140;-72
2022/07/12 08:55:23;;;;;;;2.92;1.98;;;;;;;19.39;63.08;99445.03;4136789;28;20030;-72
2022/07/12 08:57:30;;;;;;;2.85;1.85;;;;;;;19.22;62.82;99443.19;4136104;28;20034;-72
2022/07/12 08:59:30;;;;;;;2.13;1.85;;;;;;;18.99;61.67;99440.94;4135880;28;20642;-72
2022/07/12 09:01:50;;;;;;;3.38;1.70;;;;;;;18.82;61.72;99436.25;4136843;28;20165;-72
2022/07/12 09:04:10;;;;;;;1.77;1.65;;;;;;;18.99;62.41;99447.34;4137670;28;20125;-72
2022/07/12 09:06:10;;;;;;;2.15;1.88;;;;;;;19.23;62.30;99439.16;4136479;28;20046;-72
2022/07/12 09:08:11;;;;;;;2.10;1.60;;;;;;;19.38;61.50;99445.47;4137567;28;20096;-72
2022/07/12 09:10:12;;;;;;;1.95;1.60;;;;;;;19.57;60.39;99444.91;4135990;28;20036;-72
2022/07/12 09:12:22;;;;;;;1.67;1.40;;;;;;;19.75;57.92;99444.72;4137054;28;20355;-72
2022/07/12 09:14:23;;;;;;;1.60;1.25;;;;;;;19.79;56.25;99445.50;4137035;28;20427;-72
2022/07/12 09:16:25;;;;;;;1.70;1.30;;;;;;;19.85;56.32;99450.22;4136777;28;20120;-72
2022/07/12 09:18:28;;;;;;;1.40;1.30;;;;;;;19.93;54.28;99445.31;4137353;28;20060;-72
2022/07/12 09:20:34;;;;;;;2.95;1.50;;;;;;;19.95;53.77;99437.31;4136076;28;20046;-72
2022/07/12 09:22:34;;;;;;;1.65;1.10;;;;;;;19.91;54.00;99444.94;4137245;28;20426;-72
2022/07/12 09:24:34;;;;;;;1.60;1.35;;;;;;;19.99;52.95;99445.69;4136809;28;20057;-72
2022/07/12 09:26:35;;;;;;;1.40;1.25;;;;;;;19.98;53.16;99430.03;4136532;28;20485;-72
2022/07/12 09:28:36;;;;;;;1.58;1.30;;;;;;;20.01;52.34;99427.19;4136967;28;20165;-72
2022/07/12 09:30:47;;;;;;;1.73;1.10;;;;;;;20.11;52.91;99437.53;4135273;28;20052;-72